Time;durP1;ratioP1;P1;durP2;ratioP2;P2;SDS_P1;SDS_P2;PMS_P1;PMS_P2;Temp;Humidity;BMP_temperature;BMP_pressure;BME280_temperature;BME280_humidity;BME280_pressure;Samples;Min_cycle;Max_cycle;Signal;HPM_P1;HPM_P2
2023/10/03 00:00:57;;;;;;;40.53;17.48;;;12.60;99.90;;;;;;5070477;28;20037;-82
2023/10/03 00:03:23;;;;;;;41.63;18.23;;;12.60;99.90;;;;;;5064273;28;20032;-82
2023/10/03 00:05:51;;;;;;;40.40;18.05;;;12.50;99.90;;;;;;5065637;28;20099;-82
2023/10/03 00:08:17;;;;;;;39.28;17.95;;;12.50;99.90;;;;;;5074822;28;20050;-82
2023/10/03 00:10:45;;;;;;;40.15;18.75;;;12.50;99.90;;;;;;5076758;28;20048;-83
2023/10/03 00:13:12;;;;;;;43.80;18.70;;;12.50;99.90;;;;;;5069097;28;20051;-81
2023/10/03 00:15:45;;;;;;;44.88;17.83;;;12.50;99.90;;;;;;5065441;28;20048;-82
2023/10/03 00:18:14;;;;;;;39.67;18.42;;;12.50;99.90;;;;;;5066129;28;20075;-82
2023/10/03 00:20:41;;;;;;;40.53;18.20;;;12.40;99.90;;;;;;5067309;28;20029;-82
2023/10/03 00:23:07;;;;;;;39.13;18.10;;;12.40;99.90;;;;;;5067572;28;20610;-82
2023/10/03 00:25:34;;;;;;;42.63;18.10;;;12.40;99.90;;;;;;5071996;28;20035;-82
2023/10/03 00:28:00;;;;;;;40.35;17.88;;;12.30;99.90;;;;;;5080266;28;20058;-81
2023/10/03 00:30:28;;;;;;;44.03;18.92;;;12.30;99.90;;;;;;5090807;28;20029;-81
2023/10/03 00:33:02;;;;;;;42.58;18.83;;;12.20;99.90;;;;;;5086194;28;20171;-81
2023/10/03 00:35:28;;;;;;;43.85;19.25;;;12.20;99.90;;;;;;5062445;28;20044;-83
2023/10/03 00:37:54;;;;;;;44.95;19.20;;;12.20;99.90;;;;;;5062298;28;20067;-82
2023/10/03 00:42:57;;;;;;;43.05;18.58;;;12.10;99.90;;;;;;5068120;28;20046;-81
2023/10/03 00:45:24;;;;;;;44.50;18.65;;;12.10;99.90;;;;;;5066531;28;20028;-80
2023/10/03 00:47:53;;;;;;;43.78;18.92;;;12.10;99.90;;;;;;5068311;28;20040;-82
2023/10/03 00:50:20;;;;;;;42.72;18.80;;;12.10;99.90;;;;;;5067998;28;20028;-81
2023/10/03 00:52:56;;;;;;;47.42;19.27;;;12.10;99.90;;;;;;5067529;28;20036;-82
2023/10/03 00:55:29;;;;;;;43.00;19.08;;;12.10;99.90;;;;;;5065847;28;20032;-81
2023/10/03 00:58:07;;;;;;;42.90;19.15;;;12.00;99.90;;;;;;5070534;28;20025;-82
2023/10/03 01:00:37;;;;;;;42.25;18.55;;;12.00;99.90;;;;;;5070572;28;20024;-81
2023/10/03 01:03:04;;;;;;;46.22;19.02;;;12.00;99.90;;;;;;5070058;28;20063;-80
2023/10/03 01:05:29;;;;;;;41.15;18.08;;;12.00;99.90;;;;;;5069619;28;20031;-82
2023/10/03 01:07:55;;;;;;;39.30;18.05;;;12.00;99.90;;;;;;5070065;28;20020;-82
2023/10/03 01:10:21;;;;;;;41.45;17.60;;;12.00;99.90;;;;;;5070742;28;20055;-81
2023/10/03 01:12:48;;;;;;;40.35;17.77;;;12.00;99.90;;;;;;5073037;28;20119;-81
2023/10/03 01:15:22;;;;;;;39.47;17.20;;;12.00;99.90;;;;;;5073817;28;20032;-81
2023/10/03 01:17:52;;;;;;;38.78;18.02;;;12.00;99.90;;;;;;5069731;28;20040;-82
2023/10/03 01:20:28;;;;;;;38.95;17.50;;;11.90;99.90;;;;;;5069474;28;20032;-82
2023/10/03 01:22:54;;;;;;;39.40;17.10;;;11.90;99.90;;;;;;5070550;28;20157;-82
2023/10/03 01:25:21;;;;;;;40.22;17.58;;;11.90;99.90;;;;;;5069081;28;20032;-82
2023/10/03 01:27:47;;;;;;;37.85;17.10;;;11.90;99.90;;;;;;5069314;28;20035;-80
2023/10/03 01:30:13;;;;;;;40.45;18.08;;;11.90;99.90;;;;;;5070576;28;20016;-82
2023/10/03 01:32:52;;;;;;;38.47;16.60;;;11.90;99.90;;;;;;5067462;28;21379;-82
2023/10/03 01:35:18;;;;;;;39.10;16.17;;;11.90;99.90;;;;;;5068683;28;20020;-82
2023/10/03 01:37:45;;;;;;;37.92;16.60;;;11.80;99.90;;;;;;5070276;28;20039;-82
2023/10/03 01:40:16;;;;;;;35.55;15.90;;;11.80;99.90;;;;;;5073808;28;20028;-80
2023/10/03 01:42:45;;;;;;;36.17;16.40;;;11.80;99.90;;;;;;5077183;28;20033;-81
2023/10/03 01:45:17;;;;;;;37.92;15.02;;;11.80;99.90;;;;;;5068015;28;20052;-82
2023/10/03 01:47:47;;;;;;;36.08;15.50;;;11.80;99.90;;;;;;5069188;28;20028;-82
2023/10/03 01:50:14;;;;;;;32.40;14.95;;;11.80;99.90;;;;;;5067825;28;20107;-81
2023/10/03 01:52:43;;;;;;;35.55;15.30;;;11.80;99.90;;;;;;5068206;28;20055;-82
2023/10/03 01:55:12;;;;;;;32.30;14.63;;;11.80;99.90;;;;;;5067218;28;20029;-82
2023/10/03 01:57:38;;;;;;;35.65;16.63;;;11.80;99.90;;;;;;5068069;28;20039;-81
2023/10/03 02:00:11;;;;;;;32.78;14.10;;;11.80;99.90;;;;;;5069005;28;20028;-82
2023/10/03 02:02:36;;;;;;;36.78;15.43;;;11.80;99.90;;;;;;5069603;28;20051;-82
2023/10/03 02:05:02;;;;;;;32.63;14.27;;;11.80;99.90;;;;;;5069016;28;20116;-82
2023/10/03 02:07:28;;;;;;;33.60;15.60;;;11.70;99.90;;;;;;5068349;28;20117;-82
2023/10/03 02:09:55;;;;;;;32.42;14.43;;;11.70;99.90;;;;;;5069852;28;20029;-81
2023/10/03 02:12:21;;;;;;;36.03;15.32;;;11.70;99.90;;;;;;5068605;28;20039;-82
2023/10/03 02:14:49;;;;;;;34.00;14.35;;;11.70;99.90;;;;;;5066592;28;20032;-81
2023/10/03 02:17:14;;;;;;;35.30;14.18;;;11.70;99.90;;;;;;5069435;28;20028;-82
2023/10/03 02:19:40;;;;;;;39.13;14.75;;;11.70;99.90;;;;;;5068591;28;20031;-81
2023/10/03 02:22:05;;;;;;;33.65;15.30;;;11.70;99.90;;;;;;5068247;28;20082;-82
2023/10/03 02:24:32;;;;;;;32.65;14.25;;;11.70;99.90;;;;;;5068125;28;20391;-81
2023/10/03 02:27:00;;;;;;;33.78;13.90;;;11.70;99.90;;;;;;5068750;28;20995;-82
2023/10/03 02:29:26;;;;;;;32.83;13.50;;;11.70;99.90;;;;;;5069895;28;20085;-80
2023/10/03 02:31:53;;;;;;;35.85;14.85;;;11.70;99.90;;;;;;5067139;28;20605;-81
2023/10/03 02:34:19;;;;;;;29.75;13.93;;;11.70;99.90;;;;;;5067974;28;20040;-82
2023/10/03 02:36:44;;;;;;;35.17;15.18;;;11.70;99.90;;;;;;5069207;28;20048;-82
2023/10/03 02:39:13;;;;;;;31.15;13.70;;;11.70;99.90;;;;;;5067413;28;20557;-80
2023/10/03 02:41:39;;;;;;;36.95;14.00;;;11.70;99.90;;;;;;5068529;28;20028;-82
2023/10/03 02:44:07;;;;;;;37.38;15.25;;;11.70;99.90;;;;;;5068852;28;20078;-81
2023/10/03 02:46:33;;;;;;;31.55;13.50;;;11.70;99.90;;;;;;5067912;28;20067;-81
2023/10/03 02:49:00;;;;;;;32.67;13.20;;;11.80;99.90;;;;;;5066828;28;20020;-82
2023/10/03 02:51:26;;;;;;;33.17;14.68;;;11.80;99.90;;;;;;5068720;28;20032;-82
2023/10/03 02:53:51;;;;;;;30.42;13.57;;;11.80;99.90;;;;;;5068475;28;20027;-82
2023/10/03 02:56:18;;;;;;;30.75;13.57;;;11.80;99.90;;;;;;5065746;28;20120;-82
2023/10/03 02:58:44;;;;;;;33.22;14.55;;;11.90;99.90;;;;;;5068905;28;20013;-82
2023/10/03 03:01:09;;;;;;;35.00;14.80;;;11.90;99.90;;;;;;5069508;28;20027;-82
2023/10/03 03:03:35;;;;;;;33.58;15.05;;;12.00;99.90;;;;;;5066864;28;20038;-80
2023/10/03 03:06:03;;;;;;;34.85;15.45;;;12.00;99.90;;;;;;5067184;28;20020;-82
2023/10/03 03:08:30;;;;;;;32.20;14.02;;;12.10;99.90;;;;;;5068241;28;20036;-81
2023/10/03 03:10:58;;;;;;;32.65;14.05;;;12.10;99.90;;;;;;5068717;28;20716;-82
2023/10/03 03:13:26;;;;;;;35.35;15.38;;;12.20;99.90;;;;;;5069858;28;20029;-82
2023/10/03 03:15:54;;;;;;;34.67;15.07;;;12.30;99.90;;;;;;5069679;28;20054;-82
2023/10/03 03:18:20;;;;;;;39.08;15.77;;;12.30;99.90;;;;;;5071720;28;21523;-81
2023/10/03 03:20:53;;;;;;;33.13;14.27;;;12.40;99.90;;;;;;5072134;28;20028;-82
2023/10/03 03:23:19;;;;;;;35.45;14.35;;;12.50;99.90;;;;;;5075605;28;20029;-81
2023/10/03 03:25:49;;;;;;;32.33;14.45;;;12.50;99.90;;;;;;5092503;28;20027;-80
2023/10/03 03:28:15;;;;;;;37.03;14.68;;;12.60;99.90;;;;;;5090379;28;20019;-81
2023/10/03 03:30:54;;;;;;;34.10;14.60;;;12.60;99.90;;;;;;5072920;28;20147;-82
2023/10/03 03:33:21;;;;;;;32.05;13.93;;;12.70;99.90;;;;;;5063981;28;21411;-82
2023/10/03 03:35:47;;;;;;;32.92;14.23;;;12.70;99.90;;;;;;5063762;28;20052;-82
2023/10/03 03:38:18;;;;;;;35.15;15.27;;;12.80;99.90;;;;;;5066298;28;20075;-82
2023/10/03 03:40:53;;;;;;;34.53;14.43;;;12.80;99.90;;;;;;5067452;28;20049;-82
2023/10/03 03:43:20;;;;;;;32.65;14.35;;;12.80;99.90;;;;;;5065432;28;20676;-81
2023/10/03 03:45:45;;;;;;;32.05;13.80;;;12.90;99.90;;;;;;5065182;28;20106;-82
2023/10/03 03:48:13;;;;;;;33.90;13.93;;;12.90;99.90;;;;;;5067101;28;20025;-82
2023/10/03 03:50:39;;;;;;;32.25;13.85;;;13.00;99.90;;;;;;5066374;28;20085;-82
2023/10/03 03:53:08;;;;;;;31.25;14.25;;;13.00;99.90;;;;;;5063934;28;20040;-81
2023/10/03 03:55:35;;;;;;;35.28;14.60;;;13.00;99.90;;;;;;5063153;28;20047;-82
2023/10/03 03:58:07;;;;;;;32.75;13.57;;;13.00;99.90;;;;;;5067998;28;20155;-82
2023/10/03 04:00:34;;;;;;;31.20;13.80;;;13.00;99.90;;;;;;5070165;28;20056;-82
2023/10/03 04:03:05;;;;;;;32.13;13.57;;;13.00;99.90;;;;;;5075345;28;20021;-82
2023/10/03 04:05:32;;;;;;;31.77;13.95;;;13.00;99.90;;;;;;5076502;28;20047;-81
2023/10/03 04:07:59;;;;;;;33.03;13.63;;;13.00;99.90;;;;;;5068776;28;20024;-82
2023/10/03 04:10:26;;;;;;;30.48;13.45;;;13.00;99.90;;;;;;5067988;28;20497;-82
2023/10/03 04:12:52;;;;;;;30.52;13.55;;;13.00;99.90;;;;;;5066006;28;20035;-82
2023/10/03 04:15:20;;;;;;;29.33;12.88;;;13.00;99.90;;;;;;5068706;28;20063;-82
2023/10/03 04:17:48;;;;;;;32.90;12.93;;;12.90;99.90;;;;;;5070345;28;20033;-82
2023/10/03 04:22:39;;;;;;;31.67;12.70;;;12.80;99.90;;;;;;5070532;28;20505;-82
2023/10/03 04:25:05;;;;;;;32.33;13.88;;;12.70;99.90;;;;;;5069857;28;20029;-81
2023/10/03 04:27:32;;;;;;;33.38;14.32;;;12.70;99.90;;;;;;5071701;28;20411;-82
2023/10/03 04:29:57;;;;;;;28.30;12.90;;;12.60;99.90;;;;;;5073952;28;20028;-82
2023/10/03 04:32:24;;;;;;;32.97;13.32;;;12.60;99.90;;;;;;5073522;28;20058;-82
2023/10/03 04:34:50;;;;;;;30.52;12.18;;;12.60;99.90;;;;;;5072611;28;20086;-82
2023/10/03 04:37:16;;;;;;;33.55;12.85;;;12.50;99.90;;;;;;5069971;28;21656;-82
2023/10/03 04:39:42;;;;;;;32.63;13.00;;;12.50;99.90;;;;;;5070235;28;20033;-82
2023/10/03 04:42:08;;;;;;;34.60;12.90;;;12.50;99.90;;;;;;5070668;28;20358;-81
2023/10/03 04:44:34;;;;;;;29.27;12.10;;;12.50;99.90;;;;;;5071037;28;20068;-82
2023/10/03 04:47:00;;;;;;;32.22;13.63;;;12.50;99.90;;;;;;5070250;28;20063;-82
2023/10/03 04:49:25;;;;;;;28.83;12.02;;;12.50;99.90;;;;;;5069360;28;20021;-82
2023/10/03 04:51:51;;;;;;;30.80;12.77;;;12.50;99.90;;;;;;5069525;28;20054;-82
2023/10/03 04:54:16;;;;;;;31.50;13.15;;;12.50;99.90;;;;;;5068791;28;20050;-82
2023/10/03 04:56:44;;;;;;;33.17;13.27;;;12.50;99.90;;;;;;5066360;28;20035;-82
2023/10/03 04:59:10;;;;;;;30.38;13.23;;;12.50;99.90;;;;;;5070186;28;20045;-82
2023/10/03 05:01:36;;;;;;;32.42;13.40;;;12.50;99.90;;;;;;5071231;28;20040;-85
2023/10/03 05:04:04;;;;;;;29.02;13.20;;;12.50;99.90;;;;;;5071417;28;20034;-81
2023/10/03 05:06:29;;;;;;;31.40;12.77;;;12.50;99.90;;;;;;5072242;28;20095;-81
2023/10/03 05:08:56;;;;;;;31.23;13.35;;;12.50;99.90;;;;;;5072888;28;20017;-83
2023/10/03 05:11:22;;;;;;;31.38;12.55;;;12.50;99.90;;;;;;5070141;28;20024;-82
2023/10/03 05:13:48;;;;;;;33.67;13.80;;;12.50;99.90;;;;;;5069192;28;21403;-82
2023/10/03 05:16:14;;;;;;;28.98;12.52;;;12.50;99.90;;;;;;5069348;28;20048;-83
2023/10/03 05:18:40;;;;;;;33.83;13.38;;;12.50;99.90;;;;;;5068400;28;20047;-75
2023/10/03 05:21:06;;;;;;;27.83;12.85;;;12.50;99.90;;;;;;5066497;28;20578;-75
2023/10/03 05:23:32;;;;;;;31.33;12.77;;;12.40;99.90;;;;;;5067552;28;20078;-75
2023/10/03 05:25:59;;;;;;;31.95;13.55;;;12.40;99.90;;;;;;5066001;28;20384;-74
2023/10/03 05:28:25;;;;;;;29.75;12.55;;;12.40;99.90;;;;;;5067968;28;20032;-75
2023/10/03 05:30:52;;;;;;;33.10;13.10;;;12.40;99.90;;;;;;5066694;28;20086;-75
2023/10/03 05:33:20;;;;;;;31.55;13.25;;;12.40;99.90;;;;;;5067957;28;20590;-75
2023/10/03 05:35:46;;;;;;;28.33;11.85;;;12.40;99.90;;;;;;5067505;28;20036;-75
2023/10/03 05:38:11;;;;;;;28.70;12.48;;;12.30;99.90;;;;;;5065848;28;20033;-75
2023/10/03 05:40:37;;;;;;;32.22;12.95;;;12.30;99.90;;;;;;5068432;28;20081;-75
2023/10/03 05:43:05;;;;;;;28.60;13.30;;;12.30;99.90;;;;;;5068333;28;20066;-75
2023/10/03 05:45:30;;;;;;;30.33;13.23;;;12.30;99.90;;;;;;5065890;28;20024;-82
2023/10/03 05:47:59;;;;;;;29.38;12.63;;;12.30;99.90;;;;;;5070101;28;20389;-82
2023/10/03 05:50:25;;;;;;;28.95;11.77;;;12.30;99.90;;;;;;5074432;28;20024;-82
2023/10/03 05:52:50;;;;;;;28.98;11.63;;;12.40;99.90;;;;;;5073780;28;20711;-82
2023/10/03 05:55:16;;;;;;;29.08;11.95;;;12.40;99.90;;;;;;5072935;28;20113;-82
2023/10/03 05:57:42;;;;;;;29.17;12.13;;;12.50;99.90;;;;;;5076087;28;20035;-82
2023/10/03 06:00:10;;;;;;;26.75;11.52;;;12.60;99.90;;;;;;5075362;28;21440;-82
2023/10/03 06:02:38;;;;;;;28.92;11.55;;;12.70;99.90;;;;;;5074305;28;20059;-82
2023/10/03 06:05:05;;;;;;;23.77;10.50;;;12.80;99.90;;;;;;5076345;28;20051;-82
2023/10/03 06:07:31;;;;;;;26.05;11.38;;;12.80;99.90;;;;;;5074685;28;20068;-82
2023/10/03 06:09:57;;;;;;;28.88;11.60;;;12.90;99.90;;;;;;5073780;28;20063;-82
2023/10/03 06:12:23;;;;;;;24.40;11.15;;;13.10;99.90;;;;;;5076781;28;20024;-82
2023/10/03 06:14:49;;;;;;;28.38;12.18;;;13.20;99.90;;;;;;5076975;28;20032;-81
2023/10/03 06:17:17;;;;;;;25.35;11.15;;;13.30;99.90;;;;;;5078141;28;20029;-82
2023/10/03 06:19:43;;;;;;;28.55;11.50;;;13.50;99.90;;;;;;5078529;28;20020;-75
2023/10/03 06:22:10;;;;;;;31.17;12.27;;;13.60;99.90;;;;;;5068700;28;20038;-76
2023/10/03 06:24:36;;;;;;;23.50;9.75;;;13.70;99.90;;;;;;5087998;28;20012;-80
2023/10/03 06:27:03;;;;;;;28.08;11.75;;;13.90;99.90;;;;;;5076304;28;20029;-82
2023/10/03 06:29:29;;;;;;;32.78;12.43;;;14.00;99.90;;;;;;5069787;28;20050;-82
2023/10/03 06:31:54;;;;;;;26.80;12.27;;;14.20;99.90;;;;;;5070959;28;20029;-82
2023/10/03 06:34:20;;;;;;;26.83;11.88;;;14.40;99.90;;;;;;5069640;28;20035;-82
2023/10/03 06:36:46;;;;;;;27.67;10.88;;;14.60;99.90;;;;;;5070233;28;20379;-82
2023/10/03 06:39:12;;;;;;;24.58;10.70;;;14.70;99.90;;;;;;5072632;28;20897;-82
2023/10/03 06:41:38;;;;;;;24.00;10.73;;;14.80;99.90;;;;;;5071726;28;20047;-82
2023/10/03 06:44:04;;;;;;;23.65;9.80;;;15.00;99.90;;;;;;5071450;28;20029;-82
2023/10/03 06:46:30;;;;;;;25.63;10.85;;;15.10;99.90;;;;;;5070271;28;20025;-82
2023/10/03 06:48:55;;;;;;;27.45;11.43;;;15.20;99.90;;;;;;5070297;28;20059;-82
2023/10/03 06:51:21;;;;;;;23.85;9.65;;;15.30;99.90;;;;;;5068476;28;20024;-82
2023/10/03 06:53:47;;;;;;;24.50;9.95;;;15.40;99.90;;;;;;5067537;28;20163;-82
2023/10/03 06:56:13;;;;;;;27.65;10.45;;;15.50;99.90;;;;;;5064402;28;20047;-83
2023/10/03 06:58:39;;;;;;;23.55;10.13;;;15.60;99.90;;;;;;5066324;28;20032;-81
2023/10/03 07:01:04;;;;;;;23.08;10.35;;;15.70;99.90;;;;;;5069138;28;20024;-87
2023/10/03 07:03:30;;;;;;;22.65;10.25;;;15.90;99.90;;;;;;5066756;28;20024;-79
2023/10/03 07:05:59;;;;;;;22.08;9.63;;;16.00;99.90;;;;;;5065633;28;20984;-82
2023/10/03 07:08:27;;;;;;;20.90;9.90;;;16.20;99.90;;;;;;5066929;28;20039;-82
2023/10/03 07:10:53;;;;;;;22.75;10.68;;;16.20;99.90;;;;;;5068632;28;20032;-82
2023/10/03 07:13:20;;;;;;;26.73;10.55;;;16.30;99.90;;;;;;5068025;28;20054;-87
2023/10/03 07:15:45;;;;;;;21.35;9.68;;;16.30;99.90;;;;;;5065882;28;21250;-83
2023/10/03 07:18:11;;;;;;;22.30;9.77;;;16.40;99.90;;;;;;5066864;28;20032;-83
2023/10/03 07:20:40;;;;;;;20.88;9.55;;;16.40;99.90;;;;;;5068616;28;20029;-83
2023/10/03 07:23:06;;;;;;;21.75;10.02;;;16.50;99.90;;;;;;5069820;28;20062;-84
2023/10/03 07:25:32;;;;;;;23.55;10.13;;;16.60;99.90;;;;;;5072582;28;20027;-83
2023/10/03 07:27:58;;;;;;;22.80;9.93;;;16.60;99.90;;;;;;5069880;28;20591;-81
2023/10/03 07:30:26;;;;;;;20.50;9.45;;;16.80;99.90;;;;;;5068637;28;20028;-82
2023/10/03 07:32:51;;;;;;;21.60;9.82;;;16.90;99.90;;;;;;5070337;28;20051;-82
2023/10/03 07:35:19;;;;;;;20.08;8.95;;;17.10;99.90;;;;;;5070965;28;20431;-83
2023/10/03 07:37:45;;;;;;;19.83;8.80;;;17.30;99.90;;;;;;5072034;28;20028;-83
2023/10/03 07:40:11;;;;;;;18.60;8.65;;;17.50;99.90;;;;;;5073204;28;20556;-83
2023/10/03 07:42:39;;;;;;;20.92;9.48;;;17.60;99.90;;;;;;5073191;28;20028;-83
2023/10/03 07:45:08;;;;;;;18.70;9.68;;;17.80;99.90;;;;;;5071594;28;20155;-83
2023/10/03 07:47:34;;;;;;;18.00;9.07;;;18.00;99.90;;;;;;5070735;28;20971;-83
2023/10/03 07:50:03;;;;;;;17.55;9.10;;;18.20;99.90;;;;;;5073210;28;20085;-82
2023/10/03 07:52:29;;;;;;;21.23;8.85;;;18.50;99.90;;;;;;5073620;28;20055;-84
2023/10/03 07:54:56;;;;;;;20.23;9.10;;;18.70;99.90;;;;;;5071657;28;20052;-83
2023/10/03 07:57:23;;;;;;;17.73;8.25;;;18.90;99.90;;;;;;5077698;28;20688;-84
2023/10/03 07:59:50;;;;;;;16.90;8.40;;;19.00;99.90;;;;;;5076834;28;20024;-81
2023/10/03 08:02:16;;;;;;;15.95;7.97;;;19.20;99.90;;;;;;5074070;28;20035;-82
2023/10/03 08:04:43;;;;;;;17.60;8.40;;;19.40;99.90;;;;;;5069415;28;20965;-84
2023/10/03 08:07:14;;;;;;;15.82;7.85;;;19.50;99.90;;;;;;5066989;28;20032;-84
2023/10/03 08:09:46;;;;;;;17.10;8.43;;;19.70;99.90;;;;;;5068164;28;20040;-83
2023/10/03 08:12:12;;;;;;;15.20;7.47;;;19.90;99.90;;;;;;5067524;28;20035;-84
2023/10/03 08:14:39;;;;;;;17.70;7.93;;;20.00;99.90;;;;;;5065894;28;20024;-83
2023/10/03 08:17:05;;;;;;;16.35;7.93;;;20.20;99.90;;;;;;5068748;28;20025;-78
2023/10/03 08:19:30;;;;;;;18.38;8.48;;;20.40;99.90;;;;;;5069223;28;20422;-80
2023/10/03 08:21:58;;;;;;;17.20;7.75;;;20.50;99.90;;;;;;5074244;28;20048;-79
2023/10/03 08:24:25;;;;;;;19.35;8.00;;;20.60;99.90;;;;;;5073315;28;20028;-80
2023/10/03 08:26:51;;;;;;;16.35;7.78;;;20.80;99.90;;;;;;5076417;28;20202;-80
2023/10/03 08:29:23;;;;;;;16.23;7.45;;;21.00;99.90;;;;;;5073819;28;20046;-78
2023/10/03 08:31:49;;;;;;;18.67;8.93;;;21.10;99.90;;;;;;5071776;28;20036;-77
2023/10/03 08:34:17;;;;;;;15.93;8.02;;;21.30;99.90;;;;;;5074586;28;20029;-78
2023/10/03 08:36:42;;;;;;;16.02;7.90;;;21.50;99.90;;;;;;5074443;28;20109;-82
2023/10/03 08:39:14;;;;;;;19.77;8.20;;;21.70;99.90;;;;;;5078110;28;20048;-80
2023/10/03 08:41:53;;;;;;;18.98;7.90;;;21.90;99.90;;;;;;5073873;28;20752;-78
2023/10/03 08:44:23;;;;;;;15.35;7.38;;;22.10;99.90;;;;;;5074010;28;20040;-79
2023/10/03 08:46:55;;;;;;;16.40;7.78;;;22.20;99.90;;;;;;5074544;28;20138;-78
2023/10/03 08:49:27;;;;;;;14.68;7.25;;;22.40;99.90;;;;;;5066278;28;20024;-78
2023/10/03 08:52:01;;;;;;;14.27;7.35;;;22.50;99.90;;;;;;5067384;28;20079;-79
2023/10/03 08:54:36;;;;;;;13.05;6.90;;;22.70;99.90;;;;;;5066940;28;20446;-77
2023/10/03 08:57:02;;;;;;;;;;;22.90;99.90;;;;;;5071229;28;20131;-77
2023/10/03 08:59:30;;;;;;;17.15;7.78;;;23.10;99.90;;;;;;5070566;28;20010;-77
2023/10/03 09:01:58;;;;;;;17.27;7.07;;;23.20;99.90;;;;;;5070074;28;20081;-78
2023/10/03 09:04:24;;;;;;;14.32;6.78;;;23.40;99.90;;;;;;5071557;28;20039;-77
2023/10/03 09:06:50;;;;;;;15.05;7.45;;;23.60;99.90;;;;;;5071158;28;20024;-78
2023/10/03 09:09:16;;;;;;;13.43;7.20;;;23.70;99.90;;;;;;5069039;28;20036;-78
2023/10/03 09:11:50;;;;;;;14.02;6.90;;;23.90;99.90;;;;;;5074466;28;20095;-78
2023/10/03 09:14:22;;;;;;;20.35;7.45;;;23.90;99.90;;;;;;5071284;28;20040;-78
2023/10/03 09:16:54;;;;;;;16.25;7.25;;;24.20;99.90;;;;;;5070558;28;20052;-81
2023/10/03 09:19:25;;;;;;;13.38;6.50;;;24.40;99.90;;;;;;5071815;28;20111;-78
2023/10/03 09:21:52;;;;;;;12.85;7.00;;;24.40;99.90;;;;;;5072392;28;20032;-80
2023/10/03 09:24:22;;;;;;;11.40;6.70;;;24.60;99.90;;;;;;5063894;28;20039;-78
2023/10/03 09:26:51;;;;;;;11.55;5.97;;;24.70;99.90;;;;;;5066206;28;20036;-78
2023/10/03 09:29:18;;;;;;;13.98;7.28;;;24.70;99.90;;;;;;5063286;28;21158;-79
2023/10/03 09:31:48;;;;;;;13.77;6.65;;;24.80;99.90;;;;;;5062112;28;20032;-78
2023/10/03 09:34:15;;;;;;;12.13;6.60;;;24.90;99.90;;;;;;5063778;28;20032;-78
2023/10/03 09:36:41;;;;;;;12.20;6.20;;;25.10;99.90;;;;;;5066607;28;20629;-78
2023/10/03 09:39:21;;;;;;;12.27;6.70;;;25.30;99.90;;;;;;5061624;28;20028;-79
2023/10/03 09:41:54;;;;;;;12.75;6.32;;;25.40;99.90;;;;;;5064938;28;20029;-79
2023/10/03 09:44:29;;;;;;;15.23;5.75;;;25.50;99.90;;;;;;5064853;28;20958;-78
2023/10/03 09:47:06;;;;;;;10.68;5.70;;;25.60;99.90;;;;;;5067454;28;20047;-80
2023/10/03 09:49:38;;;;;;;12.32;5.88;;;25.70;99.90;;;;;;5065480;28;20060;-79
2023/10/03 09:52:18;;;;;;;12.40;6.20;;;25.80;99.90;;;;;;5068602;28;20558;-78
2023/10/03 09:54:44;;;;;;;10.55;5.82;;;25.80;99.90;;;;;;5065423;28;20029;-80
2023/10/03 09:57:16;;;;;;;12.77;5.68;;;25.80;99.90;;;;;;5067088;28;21982;-81
2023/10/03 09:59:46;;;;;;;10.63;5.22;;;25.90;99.90;;;;;;5067934;28;20025;-77
2023/10/03 10:02:13;;;;;;;11.23;6.05;;;26.00;99.90;;;;;;5070581;28;20051;-78
2023/10/03 10:04:40;;;;;;;11.65;5.97;;;26.00;99.90;;;;;;5066232;28;20084;-78
2023/10/03 10:07:17;;;;;;;9.68;5.43;;;26.00;99.90;;;;;;5065312;28;21406;-78
2023/10/03 10:10:12;;;;;;;9.27;5.30;;;26.20;99.90;;;;;;5066492;28;20066;-78
2023/10/03 10:13:04;;;;;;;14.60;5.82;;;26.30;99.90;;;;;;5066097;28;20529;-78
2023/10/03 10:15:30;;;;;;;9.50;5.85;;;26.50;99.90;;;;;;5069458;28;20028;-78
2023/10/03 10:17:56;;;;;;;10.20;5.63;;;26.70;99.90;;;;;;5068134;28;20045;-80
2023/10/03 10:20:37;;;;;;;12.27;5.53;;;26.70;99.90;;;;;;5068665;28;20025;-79
2023/10/03 10:23:04;;;;;;;8.50;5.30;;;26.80;99.90;;;;;;5068448;28;20031;-77
2023/10/03 10:25:42;;;;;;;10.98;5.75;;;26.80;99.90;;;;;;5075367;28;20038;-77
2023/10/03 10:28:17;;;;;;;10.43;5.35;;;27.00;99.90;;;;;;5074132;28;20108;-79
2023/10/03 10:31:21;;;;;;;11.77;5.30;;;27.20;99.90;;;;;;5075849;28;20058;-78
2023/10/03 10:33:49;;;;;;;10.65;5.60;;;27.30;99.90;;;;;;5071593;28;20050;-79
2023/10/03 10:36:18;;;;;;;9.50;5.68;;;27.40;99.90;;;;;;5074169;28;20032;-79
2023/10/03 10:38:44;;;;;;;8.15;4.88;;;27.50;99.90;;;;;;5075904;28;20159;-80
2023/10/03 10:41:22;;;;;;;11.85;4.95;;;27.50;99.90;;;;;;5075185;28;20055;-79
2023/10/03 10:44:07;;;;;;;14.38;5.63;;;27.50;99.90;;;;;;5072079;28;20035;-78
2023/10/03 10:46:38;;;;;;;9.93;5.13;;;27.80;99.90;;;;;;5073261;28;20016;-81
2023/10/03 10:49:25;;;;;;;9.60;4.95;;;27.90;99.90;;;;;;5076720;28;20078;-79
2023/10/03 10:52:10;;;;;;;11.73;5.03;;;27.80;99.90;;;;;;5070348;28;20780;-79
2023/10/03 10:54:42;;;;;;;11.20;5.15;;;28.00;99.90;;;;;;5068191;28;20024;-79
2023/10/03 10:57:10;;;;;;;10.98;5.57;;;28.00;99.90;;;;;;5074773;28;20020;-78
2023/10/03 10:59:39;;;;;;;9.38;4.70;;;28.00;99.90;;;;;;5075884;28;20036;-82
2023/10/03 11:02:17;;;;;;;9.88;5.25;;;27.90;99.90;;;;;;5072492;28;20036;-80
2023/10/03 11:04:43;;;;;;;11.68;4.28;;;27.90;99.90;;;;;;5072429;28;20025;-80
2023/10/03 11:07:09;;;;;;;8.57;4.88;;;27.90;99.90;;;;;;5072585;28;20035;-79
2023/10/03 11:09:38;;;;;;;11.35;5.13;;;28.00;99.90;;;;;;5070810;28;20035;-79
2023/10/03 11:12:06;;;;;;;11.93;4.72;;;28.00;99.90;;;;;;5067016;28;20047;-80
2023/10/03 11:14:33;;;;;;;10.60;5.15;;;28.00;99.90;;;;;;5066076;28;20410;-85
2023/10/03 11:17:00;;;;;;;9.55;4.70;;;28.10;99.90;;;;;;5062692;28;20036;-86
2023/10/03 11:19:27;;;;;;;7.38;4.63;;;28.20;99.90;;;;;;5062516;28;20020;-86
2023/10/03 11:21:53;;;;;;;9.00;4.40;;;28.20;99.90;;;;;;5063269;28;20436;-84
2023/10/03 11:24:22;;;;;;;9.75;4.63;;;28.30;99.90;;;;;;5063170;28;20163;-85
2023/10/03 11:26:57;;;;;;;7.47;4.63;;;28.30;99.90;;;;;;5064636;28;20050;-86
2023/10/03 11:29:46;;;;;;;8.35;4.35;;;28.30;99.90;;;;;;5065186;28;20028;-86
2023/10/03 11:32:26;;;;;;;8.63;4.45;;;28.20;99.90;;;;;;5065571;28;20049;-86
2023/10/03 11:34:54;;;;;;;6.93;4.40;;;28.10;99.80;;;;;;5064112;28;20052;-85
2023/10/03 11:37:43;;;;;;;9.73;4.65;;;28.00;99.60;;;;;;5065599;28;20033;-88
2023/10/03 11:40:20;;;;;;;8.30;4.35;;;27.60;99.90;;;;;;5065539;28;20498;-86
2023/10/03 11:43:03;;;;;;;8.40;3.92;;;27.30;99.90;;;;;;5063670;28;20093;-87
2023/10/03 11:45:30;;;;;;;7.50;4.03;;;26.90;99.90;;;;;;5065408;28;20051;-85
2023/10/03 11:48:07;;;;;;;10.00;4.22;;;26.60;99.90;;;;;;5065947;28;20027;-88
2023/10/03 11:50:36;;;;;;;8.95;4.00;;;26.30;99.90;;;;;;5069505;28;20027;-86
2023/10/03 11:53:02;;;;;;;8.93;4.55;;;26.10;99.90;;;;;;5069766;28;20029;-86
2023/10/03 11:55:31;;;;;;;10.88;4.45;;;26.00;99.90;;;;;;5064654;28;20024;-86
2023/10/03 11:57:57;;;;;;;10.00;4.18;;;25.80;99.90;;;;;;5063439;28;21003;-86
2023/10/03 12:00:24;;;;;;;9.10;4.35;;;25.90;99.90;;;;;;5064171;28;20052;-86
2023/10/03 12:02:51;;;;;;;11.35;4.40;;;25.80;99.90;;;;;;5066185;28;20020;-87
2023/10/03 12:05:16;;;;;;;7.80;4.47;;;26.10;99.90;;;;;;5063550;28;20020;-85
2023/10/03 12:07:49;;;;;;;9.10;4.53;;;26.40;99.90;;;;;;5064819;28;20067;-87
2023/10/03 12:10:16;;;;;;;7.78;4.10;;;26.70;99.90;;;;;;5066261;28;20073;-86
2023/10/03 12:12:42;;;;;;;9.60;4.70;;;27.00;99.90;;;;;;5069105;28;20032;-87
2023/10/03 12:15:12;;;;;;;9.63;4.45;;;27.30;99.90;;;;;;5063693;28;20043;-88
2023/10/03 12:17:39;;;;;;;8.20;4.25;;;27.50;99.90;;;;;;5072735;28;20114;-87
2023/10/03 12:20:06;;;;;;;10.02;4.60;;;27.90;99.90;;;;;;5072130;28;20127;-86
2023/10/03 12:22:32;;;;;;;7.38;4.20;;;28.20;99.90;;;;;;5060184;28;20499;-87
2023/10/03 12:24:57;;;;;;;9.68;3.80;;;28.30;99.90;;;;;;5061033;28;20028;-86
2023/10/03 12:27:23;;;;;;;8.18;3.60;;;28.40;99.90;;;;;;5063516;28;20020;-86
2023/10/03 12:29:49;;;;;;;9.68;4.10;;;28.40;99.90;;;;;;5061966;28;20020;-86
2023/10/03 12:32:14;;;;;;;7.20;4.10;;;28.40;99.90;;;;;;5061194;28;20051;-86
2023/10/03 12:34:40;;;;;;;13.32;4.80;;;28.50;99.00;;;;;;5062102;28;20020;-88
2023/10/03 12:37:11;;;;;;;7.57;4.30;;;28.60;99.40;;;;;;5066929;28;20021;-86
2023/10/03 12:39:37;;;;;;;8.43;4.13;;;28.80;99.20;;;;;;5065441;28;20017;-86
2023/10/03 12:42:04;;;;;;;8.77;4.57;;;28.70;99.60;;;;;;5065609;28;20452;-86
2023/10/03 12:44:31;;;;;;;8.02;4.25;;;28.70;98.60;;;;;;5066114;28;20032;-87